Time;durP1;ratioP1;P1;durP2;ratioP2;P2;SDS_P1;SDS_P2;PMS_P1;PMS_P2;Temp;Humidity;BMP_temperature;BMP_pressure;BME280_temperature;BME280_humidity;BME280_pressure;Samples;Min_cycle;Max_cycle;Signal;HPM_P1;HPM_P2
2022/11/02 00:00:41;;;;;;;9.65;1.40;;;;;;;13.90;100.00;101459.84;5203831;28;20022;-75
2022/11/02 00:03:12;;;;;;;9.68;1.88;;;;;;;13.83;100.00;101473.19;5203938;28;20087;-75
2022/11/02 00:05:42;;;;;;;10.32;1.85;;;;;;;13.79;100.00;101468.28;5202292;28;20114;-74
2022/11/02 00:08:13;;;;;;;6.93;1.58;;;;;;;13.73;100.00;101473.38;5205007;28;20036;-74
2022/11/02 00:10:43;;;;;;;15.85;2.13;;;;;;;13.69;100.00;101466.63;5208050;28;20028;-74
2022/11/02 00:13:14;;;;;;;15.32;2.03;;;;;;;13.63;100.00;101464.63;5208282;28;20061;-75
2022/11/02 00:15:46;;;;;;;10.93;2.17;;;;;;;13.57;100.00;101477.94;5208393;28;20475;-75
2022/11/02 00:18:16;;;;;;;13.75;1.60;;;;;;;13.46;100.00;101471.06;5207325;28;20057;-75
2022/11/02 00:20:47;;;;;;;10.02;1.65;;;;;;;13.39;100.00;101468.19;5207528;28;20029;-76
2022/11/02 00:23:17;;;;;;;11.52;1.77;;;;;;;13.36;100.00;101471.25;5208054;28;20446;-76
2022/11/02 00:25:51;;;;;;;13.82;1.90;;;;;;;13.40;100.00;101479.81;5207426;28;20075;-75
2022/11/02 00:28:22;;;;;;;9.65;1.70;;;;;;;13.35;100.00;101477.63;5207263;28;20369;-75
2022/11/02 00:30:53;;;;;;;8.93;1.73;;;;;;;13.28;100.00;101468.53;5207086;28;20032;-75
2022/11/02 00:33:23;;;;;;;13.68;1.83;;;;;;;13.20;100.00;101474.75;5202917;28;20026;-76
2022/11/02 00:35:54;;;;;;;15.63;1.33;;;;;;;13.13;100.00;101465.63;5206796;28;20545;-76
2022/11/02 00:38:25;;;;;;;6.72;1.70;;;;;;;13.12;100.00;101471.19;5207015;28;20033;-75
2022/11/02 00:40:55;;;;;;;9.05;1.10;;;;;;;13.07;100.00;101471.69;5206743;28;20032;-74
2022/11/02 00:43:26;;;;;;;8.25;1.17;;;;;;;13.01;100.00;101483.16;5206869;28;20026;-75
2022/11/02 00:45:56;;;;;;;5.45;1.55;;;;;;;13.01;100.00;101474.22;5206352;28;20025;-75
2022/11/02 00:48:26;;;;;;;9.88;1.65;;;;;;;12.91;100.00;101477.91;5206808;28;20095;-74
2022/11/02 00:50:57;;;;;;;5.53;2.17;;;;;;;12.95;100.00;101479.28;5207802;28;20368;-75
2022/11/02 00:53:27;;;;;;;13.20;1.35;;;;;;;12.93;100.00;101483.13;5207058;28;20094;-74
2022/11/02 00:55:58;;;;;;;7.97;1.60;;;;;;;12.87;100.00;101486.50;5207190;28;20029;-74
2022/11/02 00:58:28;;;;;;;9.80;1.95;;;;;;;12.88;100.00;101489.00;5206703;28;20037;-74
2022/11/02 01:01:04;;;;;;;12.68;1.60;;;;;;;12.89;100.00;101479.91;5203587;28;20075;-75
2022/11/02 01:03:34;;;;;;;7.45;1.92;;;;;;;12.91;100.00;101483.31;5207135;28;20025;-75
2022/11/02 01:06:13;;;;;;;10.45;1.95;;;;;;;12.99;100.00;101495.09;5205184;28;20424;-74
2022/11/02 01:08:43;;;;;;;8.20;1.50;;;;;;;13.01;100.00;101498.47;5205440;28;20025;-75
2022/11/02 01:11:24;;;;;;;8.50;1.42;;;;;;;12.98;100.00;101493.41;5206760;28;20396;-75
2022/11/02 01:13:54;;;;;;;11.85;1.73;;;;;;;12.95;100.00;101516.09;5206730;28;20028;-75
2022/11/02 01:16:25;;;;;;;17.80;1.88;;;;;;;12.93;100.00;101510.06;5206827;28;20025;-75
2022/11/02 01:18:56;;;;;;;15.45;3.25;;;;;;;12.94;100.00;101499.09;5204794;28;20040;-75
2022/11/02 01:21:26;;;;;;;18.33;1.90;;;;;;;12.91;100.00;101517.47;5206491;28;20025;-75
2022/11/02 01:23:57;;;;;;;10.07;2.33;;;;;;;12.87;100.00;101508.03;5206497;28;20071;-75
2022/11/02 01:26:27;;;;;;;14.07;2.30;;;;;;;12.88;100.00;101509.72;5206428;28;20388;-74
2022/11/02 01:28:58;;;;;;;16.42;2.25;;;;;;;12.83;100.00;101512.91;5206103;28;20026;-74
2022/11/02 01:31:28;;;;;;;10.15;1.83;;;;;;;12.81;100.00;101514.91;5201499;28;20033;-74
2022/11/02 01:33:59;;;;;;;10.32;1.40;;;;;;;12.83;100.00;101517.44;5206362;28;20148;-74
2022/11/02 01:36:29;;;;;;;14.75;2.45;;;;;;;12.82;100.00;101521.16;5206448;28;20017;-75
2022/11/02 01:39:00;;;;;;;9.30;2.13;;;;;;;12.77;100.00;101483.94;5206249;28;20017;-75
2022/11/02 01:41:30;;;;;;;13.98;2.33;;;;;;;12.77;100.00;101513.56;5206515;28;20320;-75
2022/11/02 01:44:02;;;;;;;17.13;2.15;;;;;;;12.74;100.00;101526.50;5206175;28;20040;-75
2022/11/02 01:46:41;;;;;;;12.63;1.45;;;;;;;12.74;100.00;101519.25;5206268;28;20033;-75
2022/11/02 01:49:18;;;;;;;12.55;1.67;;;;;;;12.77;100.00;101523.50;5206728;28;20049;-75
2022/11/02 01:51:58;;;;;;;7.70;2.03;;;;;;;12.84;100.00;101524.50;5206949;28;20071;-75
2022/11/02 01:54:36;;;;;;;15.18;2.53;;;;;;;12.86;100.00;101517.13;5206714;28;20432;-74
2022/11/02 01:57:11;;;;;;;12.23;2.10;;;;;;;12.84;100.00;101524.50;5206309;28;20009;-75
2022/11/02 01:59:55;;;;;;;15.27;3.15;;;;;;;12.81;100.00;101535.63;5206009;28;20110;-75
2022/11/02 02:02:27;;;;;;;8.85;1.77;;;;;;;12.80;100.00;101552.75;5206084;28;20029;-74
2022/11/02 02:05:07;;;;;;;11.07;1.60;;;;;;;12.81;100.00;101541.84;5206240;28;20480;-76
2022/11/02 02:07:42;;;;;;;8.85;2.05;;;;;;;12.82;100.00;101532.75;5205563;28;20033;-75
2022/11/02 02:10:14;;;;;;;12.10;2.20;;;;;;;12.81;100.00;101543.69;5206521;28;20036;-75
2022/11/02 02:12:45;;;;;;;18.05;2.50;;;;;;;12.85;100.00;101535.13;5205881;28;20025;-74
2022/11/02 02:15:53;;;;;;;10.73;2.30;;;;;;;12.78;100.00;101541.31;5205921;28;20057;-75
2022/11/02 02:18:48;;;;;;;12.02;1.88;;;;;;;12.78;100.00;101544.03;5205467;28;20036;-75
2022/11/02 02:22:02;;;;;;;14.38;2.05;;;;;;;12.71;100.00;101535.75;5195015;28;20024;-75
2022/11/02 02:24:50;;;;;;;15.40;2.30;;;;;;;12.77;100.00;101540.50;5194644;28;20467;-75
2022/11/02 02:27:41;;;;;;;9.35;1.80;;;;;;;12.80;100.00;101550.94;5192302;28;20033;-75
2022/11/02 02:30:13;;;;;;;8.90;1.73;;;;;;;12.83;100.00;101538.97;5205252;28;20048;-75
2022/11/02 02:33:09;;;;;;;13.85;2.13;;;;;;;12.85;100.00;101543.22;5201074;28;20036;-75
2022/11/02 02:35:48;;;;;;;8.95;2.22;;;;;;;12.89;100.00;101543.69;5193924;28;20542;-75
2022/11/02 02:38:30;;;;;;;10.57;2.10;;;;;;;12.86;100.00;101544.06;5205331;28;20080;-75
2022/11/02 02:41:12;;;;;;;15.35;2.03;;;;;;;12.75;100.00;101550.59;5205561;28;20136;-75
2022/11/02 02:43:48;;;;;;;13.73;2.25;;;;;;;12.67;100.00;101548.69;5205350;28;20025;-75
2022/11/02 02:46:23;;;;;;;11.80;1.55;;;;;;;12.72;100.00;101536.59;5192048;28;20037;-76
2022/11/02 02:48:57;;;;;;;21.55;3.58;;;;;;;12.73;100.00;101543.66;5204797;28;20040;-76
2022/11/02 02:51:30;;;;;;;20.65;2.05;;;;;;;12.62;100.00;101547.50;5205088;28;20024;-74
2022/11/02 02:54:09;;;;;;;14.65;2.13;;;;;;;12.56;100.00;101554.38;5205244;28;20021;-75
2022/11/02 02:56:48;;;;;;;16.38;2.90;;;;;;;12.56;100.00;101562.44;5191487;28;20476;-74
2022/11/02 02:59:27;;;;;;;10.90;2.08;;;;;;;12.50;100.00;101563.09;5204825;28;20405;-74
2022/11/02 03:02:07;;;;;;;8.85;1.80;;;;;;;12.48;100.00;101566.94;5204842;28;20412;-74
2022/11/02 03:04:38;;;;;;;12.48;3.25;;;;;;;12.48;100.00;101561.56;5204737;28;20075;-75
2022/11/02 03:07:17;;;;;;;17.00;2.05;;;;;;;12.49;100.00;101560.56;5203806;28;20031;-75
2022/11/02 03:10:14;;;;;;;15.82;2.30;;;;;;;12.55;100.00;101578.75;5204885;28;20025;-75
2022/11/02 03:12:56;;;;;;;16.45;2.28;;;;;;;12.62;100.00;101582.50;5197333;28;20041;-75
2022/11/02 03:15:44;;;;;;;13.57;1.88;;;;;;;12.66;100.00;101576.63;5204289;28;20108;-75
2022/11/02 03:18:21;;;;;;;18.20;2.40;;;;;;;12.74;100.00;101583.03;5204172;28;20029;-76
2022/11/02 03:20:57;;;;;;;15.93;2.33;;;;;;;12.69;100.00;101584.38;5204515;28;20025;-75
2022/11/02 03:23:54;;;;;;;11.40;1.80;;;;;;;12.70;100.00;101590.59;5204372;28;20079;-74
2022/11/02 03:26:37;;;;;;;13.38;2.30;;;;;;;12.64;100.00;101581.31;5200172;28;20036;-75
2022/11/02 03:29:13;;;;;;;14.35;1.88;;;;;;;12.57;100.00;101593.75;5204735;28;20025;-74
2022/11/02 03:31:46;;;;;;;;;;;;;;;12.48;100.00;101594.69;5199527;28;20055;-75
2022/11/02 03:34:26;;;;;;;17.98;3.17;;;;;;;12.46;100.00;101602.09;5203846;28;19913;-74
2022/11/02 03:37:02;;;;;;;16.85;2.25;;;;;;;12.41;100.00;101609.81;5199690;28;20057;-75
2022/11/02 03:39:41;;;;;;;12.55;2.80;;;;;;;12.34;100.00;101606.91;5196625;28;20511;-74
2022/11/02 03:42:16;;;;;;;17.02;2.63;;;;;;;12.32;100.00;101617.00;5202999;28;20068;-74
2022/11/02 03:44:50;;;;;;;10.98;2.03;;;;;;;12.28;100.00;101630.91;5202208;28;20030;-74
2022/11/02 03:47:22;;;;;;;10.55;2.20;;;;;;;12.28;100.00;101617.47;5203041;28;20029;-75
2022/11/02 03:49:55;;;;;;;15.20;2.22;;;;;;;12.32;100.00;101626.91;5203930;28;20021;-75
2022/11/02 03:52:29;;;;;;;15.40;2.85;;;;;;;12.38;100.00;101626.25;5204177;28;20029;-74
2022/11/02 03:55:05;;;;;;;11.80;2.08;;;;;;;12.38;100.00;101635.19;5202960;28;20087;-74
2022/11/02 03:57:45;;;;;;;9.70;2.08;;;;;;;12.29;100.00;101637.97;5203335;28;20117;-74
2022/11/02 04:00:22;;;;;;;12.82;2.50;;;;;;;12.18;100.00;101639.94;5203996;28;20030;-74
2022/11/02 04:02:59;;;;;;;14.43;2.20;;;;;;;12.17;100.00;101649.00;5203870;28;20045;-74
2022/11/02 04:05:32;;;;;;;22.83;2.00;;;;;;;12.12;100.00;101656.69;5203236;28;20060;-74
2022/11/02 04:08:23;;;;;;;21.60;2.80;;;;;;;12.14;100.00;101662.75;5196490;28;20029;-74
2022/11/02 04:16:31;;;;;;;17.17;2.95;;;;;;;11.98;100.00;101670.69;5203788;28;20412;-73
2022/11/02 04:27:29;;;;;;;10.05;1.75;;;;;;;11.96;100.00;101698.75;5203308;28;20056;-73
2022/11/02 04:29:59;;;;;;;14.57;2.30;;;;;;;11.90;100.00;101702.91;5204390;28;20029;-73
2022/11/02 04:35:18;;;;;;;16.52;2.55;;;;;;;11.80;100.00;101721.78;5203627;28;20028;-75
2022/11/02 04:40:38;;;;;;;12.48;2.30;;;;;;;11.68;100.00;101736.41;5191234;28;20017;-74
2022/11/02 04:43:08;;;;;;;14.85;2.63;;;;;;;11.66;100.00;101728.50;5203166;28;20032;-75
2022/11/02 04:45:39;;;;;;;10.25;2.00;;;;;;;11.65;100.00;101740.28;5203366;28;20116;-74
2022/11/02 04:48:09;;;;;;;21.17;2.13;;;;;;;11.66;100.00;101738.44;5203301;28;20032;-74
2022/11/02 04:50:40;;;;;;;15.77;2.25;;;;;;;11.63;100.00;101753.00;5203749;28;20032;-74
2022/11/02 04:53:10;;;;;;;16.60;2.30;;;;;;;11.55;100.00;101750.25;5203661;28;20028;-74
2022/11/02 04:55:41;;;;;;;18.35;3.35;;;;;;;11.55;100.00;101752.09;5207203;28;20473;-74
2022/11/02 04:58:11;;;;;;;17.88;2.85;;;;;;;11.51;100.00;101758.75;5206762;28;20030;-74
2022/11/02 05:00:42;;;;;;;16.35;2.17;;;;;;;11.45;100.00;101762.88;5207511;28;20100;-75
2022/11/02 05:03:12;;;;;;;23.70;2.35;;;;;;;11.47;100.00;101760.88;5207767;28;20056;-74
2022/11/02 05:05:42;;;;;;;15.98;2.58;;;;;;;11.45;100.00;101770.94;5206988;28;20049;-74
2022/11/02 05:08:13;;;;;;;21.27;1.98;;;;;;;11.41;100.00;101775.75;5206362;28;20551;-74
2022/11/02 05:10:43;;;;;;;16.95;2.95;;;;;;;11.39;100.00;101783.09;5206871;28;20129;-74
2022/11/02 05:13:14;;;;;;;17.63;3.03;;;;;;;11.35;100.00;101776.38;5207257;28;20468;-74
2022/11/02 05:15:44;;;;;;;22.83;2.20;;;;;;;11.36;100.00;101779.91;5207047;28;20057;-74
2022/11/02 05:18:15;;;;;;;12.35;1.83;;;;;;;11.35;100.00;101789.78;5206771;28;20154;-76
2022/11/02 05:20:54;;;;;;;16.20;2.50;;;;;;;11.34;100.00;101785.38;5206624;28;20100;-74
2022/11/02 05:23:25;;;;;;;15.70;2.65;;;;;;;11.34;100.00;101803.34;5207018;28;20424;-74
2022/11/02 05:26:01;;;;;;;18.60;2.40;;;;;;;11.33;100.00;101809.72;5206419;28;20464;-74
2022/11/02 05:28:33;;;;;;;10.60;1.98;;;;;;;11.27;100.00;101816.53;5206223;28;20029;-75
2022/11/02 05:31:04;;;;;;;16.42;2.60;;;;;;;11.23;100.00;101825.03;5205026;28;20512;-75
2022/11/02 05:33:34;;;;;;;16.10;2.05;;;;;;;11.21;100.00;101821.66;5203792;28;20031;-74
2022/11/02 05:36:05;;;;;;;20.45;2.97;;;;;;;11.19;100.00;101834.38;5206718;28;20465;-74
2022/11/02 05:38:35;;;;;;;8.55;2.13;;;;;;;11.16;100.00;101835.53;5206369;28;20124;-75
2022/11/02 05:41:06;;;;;;;11.75;2.03;;;;;;;11.12;100.00;101844.88;5206656;28;20061;-75
2022/11/02 05:43:36;;;;;;;15.13;2.33;;;;;;;11.09;100.00;101832.59;5192835;28;20034;-75
2022/11/02 05:46:07;;;;;;;16.67;2.80;;;;;;;11.01;100.00;101843.19;5206629;28;20101;-75
2022/11/02 05:48:37;;;;;;;11.95;1.88;;;;;;;10.95;100.00;101842.94;5206131;28;20021;-75
2022/11/02 05:51:09;;;;;;;19.40;2.47;;;;;;;10.89;100.00;101844.34;5206178;28;20452;-74
2022/11/02 05:53:39;;;;;;;13.73;2.90;;;;;;;10.87;100.00;101847.19;5206589;28;20025;-74
2022/11/02 05:56:10;;;;;;;18.73;2.50;;;;;;;10.85;100.00;101851.84;5206189;28;20041;-75
2022/11/02 05:58:41;;;;;;;15.05;2.40;;;;;;;10.83;100.00;101859.19;5206431;28;20052;-75
2022/11/02 06:01:11;;;;;;;14.02;2.30;;;;;;;10.83;100.00;101866.41;5206828;28;20060;-74
2022/11/02 06:03:42;;;;;;;15.48;2.17;;;;;;;10.84;100.00;101870.75;5206932;28;20071;-74
2022/11/02 06:06:12;;;;;;;19.80;2.58;;;;;;;10.83;100.00;101871.75;5204213;28;20097;-74
2022/11/02 06:08:43;;;;;;;16.67;2.40;;;;;;;10.78;100.00;101866.81;5205530;28;20491;-74
2022/11/02 06:11:14;;;;;;;21.52;3.13;;;;;;;10.74;100.00;101884.19;5205983;28;20108;-73
2022/11/02 06:13:49;;;;;;;19.30;2.95;;;;;;;10.71;100.00;101892.53;5206899;28;20371;-73
2022/11/02 06:16:19;;;;;;;19.55;2.40;;;;;;;10.72;100.00;101894.22;5205945;28;20013;-73
2022/11/02 06:18:50;;;;;;;21.40;3.15;;;;;;;10.72;100.00;101893.38;5205410;28;20040;-73
2022/11/02 06:21:20;;;;;;;13.95;2.25;;;;;;;10.68;100.00;101891.97;5205703;28;20369;-74
2022/11/02 06:23:51;;;;;;;14.35;2.38;;;;;;;10.65;100.00;101897.63;5205659;28;20079;-73
2022/11/02 06:26:21;;;;;;;20.08;2.58;;;;;;;10.66;100.00;101902.00;5205136;28;20121;-73
2022/11/02 06:28:52;;;;;;;15.25;2.22;;;;;;;10.61;100.00;101908.66;5185282;28;20025;-74
2022/11/02 06:31:22;;;;;;;13.60;2.50;;;;;;;10.60;100.00;101914.16;5191679;28;20495;-74
2022/11/02 06:33:53;;;;;;;20.98;2.88;;;;;;;10.54;100.00;101917.38;5203952;28;20040;-73
2022/11/02 06:36:23;;;;;;;20.65;2.92;;;;;;;10.51;100.00;101920.38;5203133;28;20053;-73
2022/11/02 06:38:54;;;;;;;19.65;3.35;;;;;;;10.50;100.00;101926.72;5203981;28;20037;-73
2022/11/02 06:41:24;;;;;;;17.55;2.47;;;;;;;10.49;100.00;101928.56;5203811;28;20026;-73
2022/11/02 06:43:55;;;;;;;16.75;2.38;;;;;;;10.48;100.00;101936.72;5203819;28;20477;-73
2022/11/02 06:46:25;;;;;;;11.18;2.72;;;;;;;10.46;100.00;101938.72;5190833;28;20052;-73
2022/11/02 06:48:57;;;;;;;15.30;2.60;;;;;;;10.43;100.00;101941.66;5202647;28;20119;-73
2022/11/02 06:51:28;;;;;;;21.02;2.78;;;;;;;10.43;100.00;101953.25;5203810;28;20067;-74
2022/11/02 06:53:59;;;;;;;22.23;3.58;;;;;;;10.47;100.00;101954.66;5204118;28;20472;-73
2022/11/02 06:56:29;;;;;;;16.20;3.15;;;;;;;10.48;100.00;101948.31;5203285;28;20056;-74
2022/11/02 06:59:00;;;;;;;20.67;3.65;;;;;;;10.50;100.00;101956.22;5203151;28;20111;-73
2022/11/02 07:01:30;;;;;;;14.60;2.53;;;;;;;10.54;100.00;101960.31;5203772;28;20030;-73
2022/11/02 07:04:01;;;;;;;19.30;3.25;;;;;;;10.59;100.00;101972.34;5203818;28;20025;-74
2022/11/02 07:06:32;;;;;;;24.73;3.10;;;;;;;10.61;100.00;101982.94;5203554;28;20027;-73
2022/11/02 07:09:03;;;;;;;16.77;3.05;;;;;;;10.59;100.00;101983.09;5202896;28;20029;-73
2022/11/02 07:11:34;;;;;;;20.98;2.40;;;;;;;10.61;100.00;101988.31;5203381;28;20040;-74
2022/11/02 07:14:04;;;;;;;19.42;2.78;;;;;;;10.64;100.00;101993.38;5202308;28;20142;-73
2022/11/02 07:16:35;;;;;;;23.90;2.85;;;;;;;10.68;100.00;102002.84;5203519;28;20484;-73
2022/11/02 07:19:05;;;;;;;18.95;4.80;;;;;;;10.71;100.00;101997.22;5202881;28;20472;-74
2022/11/02 07:21:36;;;;;;;22.40;3.70;;;;;;;10.73;100.00;102003.28;5203676;28;20083;-70
2022/11/02 07:24:06;;;;;;;22.42;3.20;;;;;;;10.84;100.00;102003.19;5203275;28;20392;-71
2022/11/02 07:26:37;;;;;;;23.83;3.22;;;;;;;10.93;100.00;102004.16;5202907;28;20121;-72
2022/11/02 07:29:07;;;;;;;20.25;3.58;;;;;;;11.04;100.00;102011.22;5202985;28;20021;-71
2022/11/02 07:31:38;;;;;;;16.95;3.13;;;;;;;11.22;100.00;102016.75;5198013;28;20080;-71
2022/11/02 07:34:09;;;;;;;19.55;3.45;;;;;;;11.40;100.00;102021.25;5203146;28;20033;-71
2022/11/02 07:36:39;;;;;;;24.40;5.55;;;;;;;11.64;100.00;102018.09;5202784;28;20036;-71
2022/11/02 07:39:10;;;;;;;16.77;3.58;;;;;;;11.87;100.00;102023.19;5202872;28;20475;-72
2022/11/02 07:41:40;;;;;;;16.45;3.40;;;;;;;12.09;100.00;102021.97;5202861;28;20055;-71
2022/11/02 07:44:11;;;;;;;31.63;4.30;;;;;;;12.33;100.00;102027.66;5202823;28;20051;-72
2022/11/02 07:46:41;;;;;;;27.77;4.25;;;;;;;12.57;100.00;102031.66;5189805;28;20075;-72
2022/11/02 07:49:13;;;;;;;19.20;3.38;;;;;;;12.80;100.00;102034.75;5202868;28;20462;-71
2022/11/02 07:51:44;;;;;;;20.70;3.30;;;;;;;12.79;100.00;102041.16;5203011;28;20392;-72
2022/11/02 07:54:14;;;;;;;23.50;4.88;;;;;;;12.82;100.00;102044.38;5203203;28;20025;-71
2022/11/02 07:56:45;;;;;;;22.45;3.47;;;;;;;12.80;100.00;102035.63;5202196;28;20026;-72
2022/11/02 07:59:15;;;;;;;18.70;3.65;;;;;;;13.02;100.00;102045.09;5202342;28;20507;-72
2022/11/02 08:01:46;;;;;;;18.58;3.45;;;;;;;13.16;100.00;102049.97;5202525;28;20064;-72
2022/11/02 08:04:16;;;;;;;20.23;3.22;;;;;;;13.17;100.00;102070.50;5202868;28;20100;-72
2022/11/02 08:06:46;;;;;;;25.27;4.15;;;;;;;13.09;100.00;102077.66;5202478;28;20108;-72
2022/11/02 08:09:18;;;;;;;20.60;3.88;;;;;;;13.20;100.00;102081.00;5202311;28;20021;-72
2022/11/02 08:11:48;;;;;;;22.42;4.07;;;;;;;13.20;100.00;102085.50;5202393;28;20029;-72
2022/11/02 08:14:19;;;;;;;19.27;3.38;;;;;;;13.07;100.00;102083.22;5202940;28;20017;-72
2022/11/02 08:16:52;;;;;;;22.08;3.60;;;;;;;13.42;100.00;102082.41;5202451;28;20022;-72
2022/11/02 08:19:23;;;;;;;15.75;2.90;;;;;;;13.47;100.00;102084.63;5202540;28;20032;-72
2022/11/02 08:21:55;;;;;;;17.77;3.40;;;;;;;13.65;100.00;102077.34;5201719;28;20481;-72
2022/11/02 08:24:25;;;;;;;21.92;3.53;;;;;;;13.25;100.00;102077.00;5202678;28;20025;-72
2022/11/02 08:26:55;;;;;;;18.60;2.67;;;;;;;13.36;100.00;102090.28;5202063;28;20057;-72
2022/11/02 08:29:26;;;;;;;22.67;2.67;;;;;;;13.72;100.00;102080.28;5204636;28;20364;-72
2022/11/02 08:31:56;;;;;;;15.30;3.05;;;;;;;13.76;100.00;102070.88;5201532;28;20369;-73
2022/11/02 08:34:27;;;;;;;21.33;3.47;;;;;;;14.22;100.00;102072.34;5206443;28;20029;-73
2022/11/02 08:36:57;;;;;;;18.88;3.35;;;;;;;14.65;100.00;102081.34;5206125;28;20144;-73
2022/11/02 08:39:28;;;;;;;22.80;3.90;;;;;;;14.84;100.00;102076.69;5206377;28;20626;-72
2022/11/02 08:41:58;;;;;;;21.48;3.40;;;;;;;14.99;100.00;102084.00;5206206;28;20025;-73
2022/11/02 08:44:29;;;;;;;24.25;4.05;;;;;;;15.54;100.00;102074.44;5206142;28;20112;-73
2022/11/02 08:46:59;;;;;;;19.40;3.42;;;;;;;15.71;100.00;102073.47;5205671;28;20120;-73
2022/11/02 08:49:30;;;;;;;21.63;3.40;;;;;;;15.95;100.00;102082.53;5206227;28;20026;-73
2022/11/02 08:52:00;;;;;;;17.48;3.33;;;;;;;16.37;100.00;102082.28;5206261;28;20108;-73
2022/11/02 08:54:31;;;;;;;24.05;3.75;;;;;;;15.59;100.00;102092.88;5205309;28;20492;-73
2022/11/02 08:57:01;;;;;;;13.18;2.90;;;;;;;15.65;100.00;102090.34;5205500;28;20017;-73
2022/11/02 08:59:32;;;;;;;21.23;4.28;;;;;;;15.70;100.00;102095.25;5204296;28;20040;-73
2022/11/02 09:02:02;;;;;;;20.60;3.22;;;;;;;15.87;100.00;102106.94;5205732;28;20021;-73
2022/11/02 09:04:32;;;;;;;21.13;3.13;;;;;;;15.80;100.00;102101.34;5205970;28;20458;-73
2022/11/02 09:07:03;;;;;;;23.95;4.47;;;;;;;15.92;100.00;102105.41;5205560;28;20030;-73
2022/11/02 09:09:33;;;;;;;20.08;3.55;;;;;;;15.94;100.00;102083.56;5205276;28;20508;-73
2022/11/02 09:12:04;;;;;;;16.73;3.80;;;;;;;16.07;100.00;102085.75;5205689;28;20079;-73
2022/11/02 09:14:35;;;;;;;14.70;3.13;;;;;;;16.20;100.00;102086.88;5205901;28;20025;-73
2022/11/02 09:17:05;;;;;;;18.13;3.40;;;;;;;16.18;100.00;102105.19;5205309;28;20488;-74
2022/11/02 09:19:36;;;;;;;19.60;4.15;;;;;;;16.14;100.00;102109.25;5205553;28;20021;-73
2022/11/02 09:22:06;;;;;;;21.55;3.15;;;;;;;16.32;100.00;102106.34;5204859;28;20037;-74
2022/11/02 09:24:37;;;;;;;27.15;3.55;;;;;;;16.23;100.00;102094.69;5205443;28;20026;-73
2022/11/02 09:27:07;;;;;;;20.20;3.53;;;;;;;15.79;100.00;102089.66;5203960;28;20127;-74
2022/11/02 09:29:38;;;;;;;21.30;3.10;;;;;;;15.57;100.00;102097.59;5205482;28;20029;-73
2022/11/02 09:32:08;;;;;;;20.38;3.28;;;;;;;15.94;100.00;102107.91;5199696;28;20029;-73
2022/11/02 09:34:39;;;;;;;22.35;3.97;;;;;;;15.98;100.00;102102.00;5205044;28;20025;-74
2022/11/02 09:37:09;;;;;;;24.90;3.67;;;;;;;16.13;100.00;102096.72;5204567;28;20029;-74
2022/11/02 09:39:40;;;;;;;20.98;3.55;;;;;;;16.23;100.00;102101.97;5205288;28;20053;-74
2022/11/02 09:42:21;;;;;;;13.63;2.88;;;;;;;16.23;100.00;102101.97;5204461;28;20018;-74
2022/11/02 09:45:15;;;;;;;26.10;4.40;;;;;;;15.91;100.00;102100.13;5205160;28;20028;-74
2022/11/02 09:47:54;;;;;;;16.95;2.85;;;;;;;15.84;100.00;102109.97;5204659;28;20036;-74
2022/11/02 09:50:41;;;;;;;13.88;3.30;;;;;;;15.68;100.00;102103.53;5193266;28;20688;-74
2022/11/02 09:53:23;;;;;;;19.92;3.85;;;;;;;15.78;100.00;102104.22;5203745;28;20077;-74
2022/11/02 09:55:58;;;;;;;27.27;3.40;;;;;;;15.55;100.00;102108.56;5205548;28;20029;-74
2022/11/02 09:58:37;;;;;;;20.00;3.47;;;;;;;15.42;100.00;102109.09;5204565;28;20028;-74
2022/11/02 10:01:37;;;;;;;21.17;3.50;;;;;;;15.34;100.00;102114.47;5204951;28;20128;-74
2022/11/02 10:04:50;;;;;;;18.30;3.22;;;;;;;14.92;100.00;102115.41;5205257;28;20026;-74
2022/11/02 10:08:11;;;;;;;21.58;3.47;;;;;;;14.87;100.00;102106.94;5190973;28;20076;-73
2022/11/02 10:11:10;;;;;;;13.95;3.47;;;;;;;14.99;100.00;102110.16;5205315;28;20512;-74
2022/11/02 10:13:49;;;;;;;23.23;3.35;;;;;;;14.89;100.00;102117.56;5206192;28;20029;-74
2022/11/02 10:16:32;;;;;;;11.82;2.72;;;;;;;14.97;100.00;102128.41;5203065;28;20051;-74
2022/11/02 10:19:10;;;;;;;21.50;3.42;;;;;;;14.69;100.00;102122.38;5204139;28;20389;-74
2022/11/02 10:21:45;;;;;;;25.10;4.07;;;;;;;14.73;100.00;102121.06;5204305;28;20423;-74
2022/11/02 10:24:30;;;;;;;;;;;;;;;14.91;100.00;102116.41;5204747;28;20037;-74
2022/11/02 10:27:05;;;;;;;16.30;2.80;;;;;;;15.03;100.00;102120.50;5203893;28;19921;-74
2022/11/02 10:29:45;;;;;;;16.47;3.03;;;;;;;15.09;100.00;102124.38;5204512;28;20025;-75
2022/11/02 10:32:16;;;;;;;17.27;2.85;;;;;;;15.32;100.00;102127.31;5198905;28;20040;-74
2022/11/02 10:34:46;;;;;;;16.38;3.17;;;;;;;15.37;100.00;102132.22;5204326;28;20029;-74
2022/11/02 10:37:35;;;;;;;29.30;3.78;;;;;;;15.34;100.00;102122.59;5203266;28;20028;-73
2022/11/02 10:40:35;;;;;;;24.48;3.58;;;;;;;15.19;100.00;102130.50;5203778;28;20030;-75
2022/11/02 10:43:30;;;;;;;19.70;3.95;;;;;;;15.24;100.00;102127.28;5203984;28;20029;-74
2022/11/02 10:46:30;;;;;;;21.80;3.15;;;;;;;15.33;100.00;102125.47;5202499;28;20072;-74
2022/11/02 10:49:48;;;;;;;21.15;3.47;;;;;;;15.28;100.00;102129.50;5183970;28;20503;-75
2022/11/02 10:52:18;;;;;;;22.00;3.15;;;;;;;14.93;100.00;102127.06;5159911;28;20037;-74
2022/11/02 10:54:50;;;;;;;16.85;3.58;;;;;;;14.69;100.00;102134.03;5160965;28;20030;-74
2022/11/02 10:57:24;;;;;;;15.98;3.75;;;;;;;14.53;100.00;102133.97;5183796;28;20041;-74
2022/11/02 11:00:26;;;;;;;23.03;3.67;;;;;;;14.66;100.00;102138.91;5203518;28;20488;-74
2022/11/02 11:03:13;;;;;;;18.45;2.72;;;;;;;14.82;100.00;102130.91;5203487;28;20259;-74
2022/11/02 11:05:50;;;;;;;14.60;2.72;;;;;;;14.90;100.00;102122.81;5204088;28;20056;-74
2022/11/02 11:08:40;;;;;;;16.67;2.17;;;;;;;14.81;100.00;102128.34;5202784;28;20021;-74
2022/11/02 11:11:16;;;;;;;13.88;3.25;;;;;;;14.58;100.00;102131.63;5202361;28;20030;-74
2022/11/02 11:13:57;;;;;;;19.73;2.33;;;;;;;14.54;100.00;102143.75;5202958;28;20400;-74
2022/11/02 11:16:42;;;;;;;20.40;2.58;;;;;;;14.32;100.00;102138.88;5202340;28;20030;-75
2022/11/02 11:19:34;;;;;;;20.00;3.30;;;;;;;14.61;100.00;102138.53;5202178;28;20543;-74
2022/11/02 11:22:29;;;;;;;20.30;3.40;;;;;;;14.60;100.00;102136.84;5201949;28;20028;-74
2022/11/02 11:25:12;;;;;;;21.30;2.67;;;;;;;14.87;100.00;102130.41;5202569;28;20026;-74
2022/11/02 11:27:47;;;;;;;16.10;2.97;;;;;;;15.09;100.00;102118.97;5190031;28;20087;-74
2022/11/02 11:30:27;;;;;;;16.52;2.42;;;;;;;15.06;100.00;102118.47;5202070;28;20064;-74
2022/11/02 11:32:59;;;;;;;16.70;2.47;;;;;;;15.22;100.00;102105.00;5194236;28;20163;-74
2022/11/02 11:35:38;;;;;;;17.38;2.72;;;;;;;15.21;100.00;102100.59;5202067;28;20029;-74
2022/11/02 11:38:16;;;;;;;25.10;3.85;;;;;;;15.08;100.00;102101.09;5202554;28;20025;-74
2022/11/02 11:40:54;;;;;;;22.70;4.35;;;;;;;14.88;100.00;102102.38;5203794;28;20055;-74
2022/11/02 11:43:33;;;;;;;18.17;2.80;;;;;;;14.71;100.00;102098.78;5203039;28;20530;-74
2022/11/02 11:46:07;;;;;;;24.48;4.05;;;;;;;14.70;100.00;102081.69;5201979;28;20034;-74
2022/11/02 11:48:48;;;;;;;22.42;3.67;;;;;;;14.65;100.00;102097.56;5202529;28;20064;-74
2022/11/02 11:51:18;;;;;;;21.52;3.53;;;;;;;14.74;100.00;102095.75;5202785;28;20499;-74
2022/11/02 11:54:21;;;;;;;20.17;3.28;;;;;;;14.99;100.00;102091.25;5202473;28;20036;-74
2022/11/02 11:56:57;;;;;;;20.90;3.50;;;;;;;14.95;100.00;102079.91;5202053;28;20057;-74
2022/11/02 11:59:45;;;;;;;21.58;3.25;;;;;;;15.18;100.00;102077.44;5202959;28;20033;-74
2022/11/02 12:02:24;;;;;;;16.88;3.08;;;;;;;15.34;100.00;102078.47;5202557;28;20035;-75
2022/11/02 12:05:21;;;;;;;27.77;3.75;;;;;;;15.13;100.00;102068.16;5189562;28;20021;-75